Time;durP1;ratioP1;P1;durP2;ratioP2;P2;SDS_P1;SDS_P2;PMS_P1;PMS_P2;Temp;Humidity;BMP_temperature;BMP_pressure;BME280_temperature;BME280_humidity;BME280_pressure;Samples;Min_cycle;Max_cycle;Signal;HPM_P1;HPM_P2
2022/07/01 00:05:22;;;;;;;9.15;4.78;;;;;;;26.08;56.54;100065.84;18419826;32;20093;-56
2022/07/01 00:15:26;;;;;;;8.00;4.53;;;;;;;25.98;56.40;100072.84;18418213;32;20442;-56
2022/07/01 00:25:30;;;;;;;10.65;5.07;;;;;;;25.89;56.84;100069.91;18417281;32;20429;-55
2022/07/01 00:35:34;;;;;;;10.77;5.20;;;;;;;25.55;58.23;100076.78;18416996;32;20434;-55
2022/07/01 00:45:45;;;;;;;11.48;5.00;;;;;;;25.56;57.68;100078.47;18467031;31;80427;-55
2022/07/01 00:55:49;;;;;;;8.75;4.87;;;;;;;25.44;58.28;100085.53;18422775;32;20092;-56
2022/07/01 01:05:54;;;;;;;11.55;5.68;;;;;;;25.20;58.95;100080.91;18425884;32;20088;-55
2022/07/01 01:15:59;;;;;;;10.30;5.20;;;;;;;25.22;58.58;100081.66;18425722;32;20109;-55
2022/07/01 01:26:04;;;;;;;10.52;5.12;;;;;;;25.03;59.79;100079.41;18425265;32;20145;-56
2022/07/01 01:36:07;;;;;;;10.15;5.35;;;;;;;24.87;59.72;100085.78;18424704;32;20100;-55
2022/07/01 01:46:12;;;;;;;10.43;5.68;;;;;;;24.89;59.55;100091.87;18424268;32;20437;-55
2022/07/01 01:56:15;;;;;;;11.30;5.50;;;;;;;24.68;60.92;100110.16;18423665;32;20144;-55
2022/07/01 02:06:21;;;;;;;9.65;5.03;;;;;;;24.74;60.71;100099.06;18423060;32;20108;-55
2022/07/01 02:16:25;;;;;;;11.43;5.43;;;;;;;24.71;61.00;100101.94;18423249;32;20088;-55
2022/07/01 02:26:29;;;;;;;10.38;5.22;;;;;;;24.53;61.21;100099.53;18422877;32;20097;-55
2022/07/01 02:36:33;;;;;;;10.02;5.25;;;;;;;24.45;61.37;100101.84;18475657;31;20208;-55
2022/07/01 02:46:37;;;;;;;10.82;5.12;;;;;;;24.33;62.00;100102.66;18421912;32;20438;-55
2022/07/01 02:56:40;;;;;;;10.57;5.47;;;;;;;24.27;61.93;100106.59;18421797;32;20085;-55
2022/07/01 03:06:45;;;;;;;10.07;5.68;;;;;;;24.23;61.93;100113.91;18421370;32;20463;-55
2022/07/01 03:16:48;;;;;;;9.52;5.20;;;;;;;24.01;62.64;100118.91;18420291;32;20130;-55
2022/07/01 03:26:53;;;;;;;11.55;5.85;;;;;;;24.04;62.61;100132.00;18420535;32;20121;-55
2022/07/01 03:36:56;;;;;;;10.40;5.65;;;;;;;23.95;63.24;100138.75;18419777;32;20107;-55
2022/07/01 03:47:01;;;;;;;11.12;6.05;;;;;;;23.92;63.29;100160.28;18420089;32;20116;-56
2022/07/01 03:57:06;;;;;;;10.88;5.93;;;;;;;24.28;62.67;100169.63;18419135;32;20141;-55
2022/07/01 04:07:11;;;;;;;12.35;5.25;;;;;;;24.56;61.89;100175.00;18443243;31;20719;-55
2022/07/01 04:17:14;;;;;;;11.93;5.70;;;;;;;24.86;61.69;100190.84;18689662;31;20114;-55
2022/07/01 04:27:19;;;;;;;11.23;5.57;;;;;;;25.52;60.82;100187.41;18685859;31;20114;-55
2022/07/01 04:37:22;;;;;;;11.55;6.35;;;;;;;26.01;60.92;100184.94;18697115;31;20202;-55
2022/07/01 04:47:32;;;;;;;11.07;5.12;;;;;;;26.78;58.58;100180.38;18698034;31;20102;-55
2022/07/01 04:57:35;;;;;;;9.90;4.93;;;;;;;27.88;56.03;100169.41;18479191;31;20119;-55
2022/07/01 05:07:39;;;;;;;10.85;5.45;;;;;;;28.33;53.42;100163.16;18426018;32;20092;-55
2022/07/01 05:28:05;;;;;;;;;;;;;;;28.94;51.60;100183.28;18425018;32;20100;-55
2022/07/01 05:38:08;;;;;;;10.02;5.25;;;;;;;29.39;50.32;100186.72;18422989;31;19987;-56
2022/07/01 05:48:12;;;;;;;9.98;4.85;;;;;;;29.51;50.26;100192.09;18421414;32;20715;-55
2022/07/01 05:58:16;;;;;;;11.27;5.10;;;;;;;29.72;49.99;100198.28;18422465;32;20092;-55
2022/07/01 06:08:20;;;;;;;11.65;4.82;;;;;;;30.17;48.23;100202.47;18423196;32;20124;-55
2022/07/01 06:18:24;;;;;;;11.05;4.97;;;;;;;30.58;47.66;100215.03;18422940;32;20111;-55
2022/07/01 06:28:29;;;;;;;10.52;4.82;;;;;;;31.09;46.96;100213.16;18422949;32;20115;-56
2022/07/01 06:38:33;;;;;;;8.63;4.60;;;;;;;31.50;46.89;100220.25;18445732;31;20145;-56
2022/07/01 06:48:37;;;;;;;11.98;4.65;;;;;;;32.16;45.47;100204.16;18692090;31;20102;-56
2022/07/01 06:58:41;;;;;;;8.07;4.32;;;;;;;32.48;45.07;100213.66;18693313;31;20097;-56
2022/07/01 07:08:45;;;;;;;7.80;4.37;;;;;;;33.26;41.35;100208.72;18692161;31;20337;-57
2022/07/01 07:18:49;;;;;;;12.48;4.70;;;;;;;33.78;38.90;100204.34;18640493;31;20460;-56
2022/07/01 07:28:55;;;;;;;10.50;4.07;;;;;;;33.92;40.27;100197.50;18634639;31;20104;-57
2022/07/01 07:38:59;;;;;;;7.65;4.03;;;;;;;34.67;38.34;100191.38;18654990;31;20081;-57
2022/07/01 07:49:06;;;;;;;7.72;3.30;;;;;;;35.44;36.70;100188.53;18472633;31;20092;-57
2022/07/01 07:59:11;;;;;;;8.73;3.62;;;;;;;35.79;34.81;100195.41;18418765;32;20369;-56
2022/07/01 08:09:16;;;;;;;9.90;3.33;;;;;;;36.06;35.21;100190.59;18418570;32;20101;-57
2022/07/01 08:19:20;;;;;;;13.02;3.55;;;;;;;34.82;36.38;100201.56;18417724;32;20514;-56
2022/07/01 08:29:25;;;;;;;9.30;3.22;;;;;;;35.91;34.38;100187.75;18417281;32;20099;-56
2022/07/01 08:39:28;;;;;;;8.48;3.17;;;;;;;36.35;32.83;100193.69;18465472;31;20088;-56
2022/07/01 08:49:35;;;;;;;9.23;3.17;;;;;;;36.23;33.88;100188.66;18687260;31;20128;-56
2022/07/01 08:59:38;;;;;;;7.75;3.15;;;;;;;36.82;33.00;100193.75;18687065;31;20096;-56
2022/07/01 09:09:43;;;;;;;8.73;3.10;;;;;;;37.07;31.14;100180.81;18685203;31;20158;-55
2022/07/01 09:19:50;;;;;;;12.23;2.80;;;;;;;36.89;31.57;100178.41;18696606;31;20118;-56
2022/07/01 09:29:55;;;;;;;7.55;2.42;;;;;;;37.12;31.67;100178.41;18695800;31;20091;-56
2022/07/01 09:39:59;;;;;;;8.05;3.25;;;;;;;37.48;30.54;100172.28;18633319;31;20089;-57
2022/07/01 09:50:06;;;;;;;8.20;2.87;;;;;;;37.90;28.19;100152.75;18396426;32;20161;-57
2022/07/01 10:00:10;;;;;;;8.07;2.60;;;;;;;38.44;28.44;100153.44;18403145;32;20097;-56
2022/07/01 10:10:29;;;;;;;8.32;2.80;;;;;;;37.93;28.53;100151.53;18422926;32;20096;-56
2022/07/01 10:20:32;;;;;;;4.90;2.35;;;;;;;38.95;27.72;100138.84;18422777;32;20097;-56
2022/07/01 10:30:36;;;;;;;6.70;2.50;;;;;;;39.10;26.66;100133.28;18399781;32;20093;-56
2022/07/01 10:40:46;;;;;;;5.50;2.30;;;;;;;39.27;25.98;100131.09;18405087;31;20093;-56
2022/07/01 10:50:51;;;;;;;10.30;2.80;;;;;;;39.31;25.11;100122.50;18466948;31;20416;-56
2022/07/01 11:00:56;;;;;;;8.13;2.92;;;;;;;38.79;25.44;100125.47;18412356;32;20479;-56
2022/07/01 11:11:04;;;;;;;6.85;2.60;;;;;;;38.53;26.50;100116.00;18420525;31;20112;-56
2022/07/01 11:21:09;;;;;;;5.62;2.37;;;;;;;37.84;28.48;100115.37;18358807;32;20141;-56
2022/07/01 11:31:14;;;;;;;6.40;2.60;;;;;;;38.27;26.54;100096.44;18386819;31;20093;-57
2022/07/01 11:41:20;;;;;;;4.12;1.77;;;;;;;37.79;25.81;100101.50;18428208;31;20427;-54
2022/07/01 11:51:27;;;;;;;6.93;2.25;;;;;;;39.08;23.98;100078.09;18387457;32;20088;-54
2022/07/01 12:01:32;;;;;;;17.73;3.22;;;;;;;39.60;22.19;100075.03;18409574;32;20097;-54
2022/07/01 12:11:37;;;;;;;4.32;2.03;;;;;;;39.45;24.64;100060.66;18354902;32;20097;-54
2022/07/01 12:21:53;;;;;;;6.45;2.35;;;;;;;39.12;24.83;100059.41;18409616;31;20124;-54
2022/07/01 12:32:02;;;;;;;6.32;2.40;;;;;;;37.57;26.29;100044.28;18412024;31;20112;-54
2022/07/01 12:42:05;;;;;;;2.70;1.70;;;;;;;37.72;26.33;100036.09;18395429;32;20634;-55
2022/07/01 13:02:38;;;;;;;6.85;2.33;;;;;;;38.86;23.73;100009.91;18723642;31;223409;-55
2022/07/01 13:12:41;;;;;;;9.40;2.50;;;;;;;38.86;23.73;100009.91;18590261;31;20092;-55
2022/07/01 13:22:46;;;;;;;5.22;2.30;;;;;;;38.20;23.72;100002.84;18582874;31;20080;-55
2022/07/01 13:32:52;;;;;;;5.57;2.28;;;;;;;38.93;22.14;99990.00;18626441;31;20144;-55
2022/07/01 13:42:56;;;;;;;5.78;2.30;;;;;;;39.05;23.54;99980.25;18543858;32;20092;-55
2022/07/01 13:53:00;;;;;;;6.97;2.30;;;;;;;39.18;21.85;99978.66;18628326;31;20156;-55
2022/07/01 14:03:04;;;;;;;5.40;2.25;;;;;;;39.63;21.26;99962.66;18673291;31;20435;-55
2022/07/01 14:13:07;;;;;;;4.60;2.30;;;;;;;39.95;19.21;99952.03;18572791;31;20089;-55
2022/07/01 14:23:12;;;;;;;6.93;2.17;;;;;;;40.40;19.35;99947.81;18595214;31;20088;-55
2022/07/01 14:33:15;;;;;;;8.40;2.17;;;;;;;40.27;18.22;99956.88;18565696;31;20092;-55
2022/07/01 14:43:20;;;;;;;4.18;1.80;;;;;;;39.94;18.43;99953.09;18503529;31;20365;-55
2022/07/01 14:53:23;;;;;;;4.95;1.85;;;;;;;39.76;18.40;99939.97;18562091;31;20096;-55
2022/07/01 15:03:28;;;;;;;5.10;1.55;;;;;;;40.13;17.74;99939.63;18625901;31;20092;-55
2022/07/01 15:13:31;;;;;;;4.28;1.67;;;;;;;40.18;16.95;99937.09;18628909;31;20110;-55
2022/07/01 15:23:36;;;;;;;4.03;1.77;;;;;;;40.11;16.03;99944.44;18537365;31;20270;-56
2022/07/01 15:33:39;;;;;;;4.80;1.80;;;;;;;39.80;16.47;99944.00;18540942;31;20115;-56
2022/07/01 15:43:44;;;;;;;7.15;1.70;;;;;;;39.52;17.78;99936.81;18511087;31;20102;-55
2022/07/01 15:53:47;;;;;;;7.80;1.90;;;;;;;39.24;16.36;99928.69;18621770;31;20091;-56
2022/07/01 16:03:52;;;;;;;4.85;1.73;;;;;;;39.07;17.53;99922.75;18627028;31;20095;-56
2022/07/01 16:13:58;;;;;;;4.15;1.70;;;;;;;39.18;18.15;99935.81;18589239;31;20085;-56
2022/07/01 16:24:03;;;;;;;8.00;2.40;;;;;;;39.17;17.24;99928.66;18604411;31;20106;-56
2022/07/01 16:34:07;;;;;;;5.12;2.37;;;;;;;39.02;18.58;99931.56;18496249;31;20092;-56
2022/07/01 16:44:15;;;;;;;5.57;3.12;;;;;;;38.70;19.75;99922.94;18545671;31;20093;-56
2022/07/01 16:54:21;;;;;;;8.60;2.75;;;;;;;38.63;19.95;99933.00;18544377;31;20118;-55
2022/07/01 17:04:26;;;;;;;7.37;2.47;;;;;;;38.52;20.89;99932.50;18542938;31;20114;-56
2022/07/01 17:14:30;;;;;;;5.72;2.70;;;;;;;38.15;21.86;99945.41;18531585;31;20100;-55
2022/07/01 17:24:36;;;;;;;13.30;2.87;;;;;;;38.11;22.24;99935.91;18493013;32;20116;-55
2022/07/01 17:34:43;;;;;;;7.82;2.97;;;;;;;37.60;24.36;99941.28;18502215;32;20096;-55
2022/07/01 17:44:50;;;;;;;8.20;3.03;;;;;;;37.22;25.16;99948.75;18534167;32;20081;-56
2022/07/01 17:54:54;;;;;;;8.33;3.23;;;;;;;36.83;27.29;99951.56;18487075;32;20365;-55
2022/07/01 18:04:59;;;;;;;6.90;3.00;;;;;;;36.29;29.74;99948.00;18529581;31;20099;-55
2022/07/01 18:15:05;;;;;;;8.48;3.22;;;;;;;35.79;31.99;99966.50;18630555;31;20459;-55
2022/07/01 18:25:11;;;;;;;8.40;3.20;;;;;;;35.13;34.47;99983.97;18630289;31;20099;-55
2022/07/01 18:35:15;;;;;;;13.18;3.65;;;;;;;34.56;35.23;99996.59;18554782;31;20418;-55
2022/07/01 18:45:21;;;;;;;7.55;3.40;;;;;;;33.99;36.06;100014.44;18499406;32;20104;-55
2022/07/01 18:55:24;;;;;;;7.97;3.67;;;;;;;33.43;37.44;100031.16;18498939;32;20166;-55
2022/07/01 19:05:32;;;;;;;8.10;4.10;;;;;;;32.98;37.74;100050.16;18498761;32;20101;-55
2022/07/01 19:15:35;;;;;;;7.30;3.30;;;;;;;32.51;39.25;100075.63;18498472;32;20120;-55
2022/07/01 19:25:40;;;;;;;9.18;3.50;;;;;;;32.09;39.88;100088.66;18497758;32;20106;-55
2022/07/01 19:35:43;;;;;;;8.15;3.70;;;;;;;31.74;39.78;100095.66;18515684;31;20092;-56
2022/07/01 19:45:48;;;;;;;9.82;3.22;;;;;;;31.60;39.65;100107.78;18531965;31;20093;-55
2022/07/01 19:55:51;;;;;;;8.40;3.22;;;;;;;31.54;38.78;100113.75;18497099;32;20092;-56
2022/07/01 20:05:56;;;;;;;7.60;3.20;;;;;;;31.70;34.95;100121.22;18497366;32;20115;-56
2022/07/01 20:15:59;;;;;;;8.07;3.12;;;;;;;31.98;35.61;100132.06;18507278;32;20134;-55
2022/07/01 20:26:04;;;;;;;7.78;2.67;;;;;;;32.10;33.61;100154.31;18550936;31;20528;-54
2022/07/01 20:36:07;;;;;;;9.63;2.67;;;;;;;32.16;35.99;100153.72;18559867;31;20127;-56
2022/07/01 20:46:12;;;;;;;5.43;2.15;;;;;;;30.87;39.00;100206.19;18557508;31;20176;-55
2022/07/01 20:56:16;;;;;;;6.82;2.35;;;;;;;30.15;41.17;100241.28;18515242;31;20724;-56
2022/07/01 21:06:25;;;;;;;5.50;2.60;;;;;;;29.40;43.08;100252.94;18503891;31;20112;-56
2022/07/01 21:16:29;;;;;;;8.15;2.30;;;;;;;29.14;42.88;100237.19;18543274;31;20096;-56
2022/07/01 21:26:33;;;;;;;5.37;2.25;;;;;;;29.02;44.47;100235.50;18566822;31;20092;-56
2022/07/01 21:36:36;;;;;;;4.53;2.10;;;;;;;29.12;44.16;100222.19;18625584;31;20096;-56
2022/07/01 21:46:42;;;;;;;6.78;2.62;;;;;;;28.21;46.35;100247.34;18616974;31;20114;-56
2022/07/01 21:56:46;;;;;;;10.02;2.70;;;;;;;28.32;45.51;100260.75;18541702;31;20120;-56
2022/07/01 22:06:54;;;;;;;6.25;2.75;;;;;;;29.04;43.22;100257.75;18540705;32;20097;-55
2022/07/01 22:16:59;;;;;;;7.60;2.95;;;;;;;29.27;42.84;100274.66;18550650;32;20168;-55
2022/07/01 22:27:06;;;;;;;4.70;2.67;;;;;;;28.93;43.28;100296.25;18564458;32;20102;-55
2022/07/01 22:37:09;;;;;;;7.45;2.95;;;;;;;29.12;42.67;100292.03;18519044;32;20081;-55
2022/07/01 22:47:17;;;;;;;8.88;2.72;;;;;;;27.46;47.08;100311.97;18484922;32;20136;-55
2022/07/01 22:57:23;;;;;;;7.70;2.80;;;;;;;28.73;44.23;100352.41;18484277;32;20107;-55
2022/07/01 23:07:30;;;;;;;7.00;2.35;;;;;;;26.99;47.96;100389.53;18499627;32;20100;-55
2022/07/01 23:17:34;;;;;;;4.65;1.92;;;;;;;27.87;43.96;100422.47;18498415;32;20088;-55
2022/07/01 23:27:39;;;;;;;5.87;1.92;;;;;;;28.07;42.11;100433.53;18498167;32;20088;-55
2022/07/01 23:37:44;;;;;;;4.53;1.80;;;;;;;27.74;42.74;100435.09;18496749;32;20130;-55
2022/07/01 23:47:49;;;;;;;4.18;1.90;;;;;;;27.93;41.81;100505.16;18497564;32;20107;-55
2022/07/01 23:57:52;;;;;;;5.82;2.00;;;;;;;27.14;43.56;100532.25;18482586;32;20112;-55
